Airfield :
LOGIN :

Register | Disclaimer

   EN    FR    IT 

 










Legend :    VFR   Marginal VFR   IFR   Intensive IFR   Very Intensive IFR
Visi :
Ceiling :
>= 8 km
>= 3000ft
5 to 8 km
1000 to 3000 ft
1500m to 5 km
500 to 1000 ft
800 to 1500m
200 to 500 ft
< 800m
< 200 ft
Symbols :   Thunderstorms  Fog  Heavy snow  Heavy precipitations  Wind > 20 kt
SIGMETs :     Misc.  Thunderstorms  Icing  Turbulence  Mountain Waves  Volcanic Ashes






- Airport Elevation : 1411 ft
- IATA code : GVA


LSGG - Genève Cointrin

CURRENT METAR :
  • 280420Z AUTO 21003KT 9999 RA FEW022 BKN031 04/03 Q1016 NOSIG

EXPIRED METARs :
  • 280350Z AUTO VRB03KT 9999 RA SCT023 BKN035 04/03 Q1016 NOSIG
  • 280320Z AUTO 22006KT 9999 -RA FEW022 BKN028 04/03 Q1016 NOSIG
  • 270250Z AUTO 35002KT 9999 BKN085 M02/M04 Q1020 NOSIG
  • 280150Z AUTO VRB02KT 9999 -RA FEW037 BKN044 03/03 Q1017 NOSIG

TAF TAF LSGG
Valid from the 28 at 03:00 until the 29 at 09:00 UTC


280225Z 2803/2909 23010KT 9999 -RA FEW020 BKN030 TX08/2815Z TN03/2803Z TN07/2906Z
PROB30
TEMPO 2803/2818 3000 -RADZ BKN012
PROB40
TEMPO 2822/2909 4000 RA
ATIS : +41 22 417 40 81



MET'MAP, your aeronautical weather chart ! - Copyright ORBIFLY December 2007 - Disclaimer

ORBIFLY MET'MAP TEAM :

Programming & Development : Alexandra Zaïnal
Concept & original design : Baudouin d'Aumeries
Assistance for programming : Marc-Olivier Méhu
Technical & hardware support : Manuel Goepfert

Contact : metmap@orbifly.com




SOURCES & CREDITS :

   NOAA